sensor_id;sensor_type;location;lat;lon;timestamp;P1;durP1;ratioP1;P2;durP2;ratioP2
55148;SDS011;49539;48.160;11.530;2023-02-01T00:00:45;6.60;;;3.03;;
55148;SDS011;49539;48.160;11.530;2023-02-01T00:03:10;8.32;;;3.15;;
55148;SDS011;49539;48.160;11.530;2023-02-01T00:05:37;6.18;;;3.08;;
55148;SDS011;49539;48.160;11.530;2023-02-01T00:08:03;5.18;;;2.38;;
55148;SDS011;49539;48.160;11.530;2023-02-01T00:10:28;7.97;;;2.78;;
55148;SDS011;49539;48.160;11.530;2023-02-01T00:12:54;5.22;;;2.42;;
55148;SDS011;49539;48.160;11.530;2023-02-01T00:15:19;9.32;;;3.35;;
55148;SDS011;49539;48.160;11.530;2023-02-01T00:17:45;4.25;;;2.55;;
55148;SDS011;49539;48.160;11.530;2023-02-01T00:20:11;7.88;;;3.17;;
55148;SDS011;49539;48.160;11.530;2023-02-01T00:22:36;4.75;;;3.00;;
55148;SDS011;49539;48.160;11.530;2023-02-01T00:25:01;7.55;;;3.25;;
55148;SDS011;49539;48.160;11.530;2023-02-01T00:27:27;5.35;;;2.55;;
55148;SDS011;49539;48.160;11.530;2023-02-01T00:29:54;6.85;;;2.85;;
55148;SDS011;49539;48.160;11.530;2023-02-01T00:32:19;4.93;;;2.55;;
55148;SDS011;49539;48.160;11.530;2023-02-01T00:34:44;6.07;;;2.80;;
55148;SDS011;49539;48.160;11.530;2023-02-01T00:37:09;4.47;;;2.40;;
55148;SDS011;49539;48.160;11.530;2023-02-01T00:39:35;5.18;;;2.58;;
55148;SDS011;49539;48.160;11.530;2023-02-01T00:42:00;9.70;;;2.50;;
55148;SDS011;49539;48.160;11.530;2023-02-01T00:44:27;5.32;;;2.58;;
55148;SDS011;49539;48.160;11.530;2023-02-01T00:46:52;6.03;;;3.00;;
55148;SDS011;49539;48.160;11.530;2023-02-01T00:49:17;5.72;;;3.03;;
55148;SDS011;49539;48.160;11.530;2023-02-01T00:51:43;4.97;;;2.70;;
55148;SDS011;49539;48.160;11.530;2023-02-01T00:54:08;8.40;;;3.40;;
55148;SDS011;49539;48.160;11.530;2023-02-01T00:56:33;8.63;;;3.80;;
55148;SDS011;49539;48.160;11.530;2023-02-01T00:58:58;5.40;;;3.60;;
55148;SDS011;49539;48.160;11.530;2023-02-01T01:01:25;5.10;;;2.90;;
55148;SDS011;49539;48.160;11.530;2023-02-01T01:03:51;6.88;;;3.92;;
55148;SDS011;49539;48.160;11.530;2023-02-01T01:06:19;9.32;;;3.63;;
55148;SDS011;49539;48.160;11.530;2023-02-01T01:08:45;6.70;;;3.70;;
55148;SDS011;49539;48.160;11.530;2023-02-01T01:11:17;7.80;;;3.70;;
55148;SDS011;49539;48.160;11.530;2023-02-01T01:13:43;7.35;;;3.60;;
55148;SDS011;49539;48.160;11.530;2023-02-01T01:16:09;8.02;;;3.85;;
55148;SDS011;49539;48.160;11.530;2023-02-01T01:18:35;6.93;;;3.38;;
55148;SDS011;49539;48.160;11.530;2023-02-01T01:21:01;7.13;;;3.90;;
55148;SDS011;49539;48.160;11.530;2023-02-01T01:23:26;7.68;;;3.95;;
55148;SDS011;49539;48.160;11.530;2023-02-01T01:25:52;10.63;;;4.22;;
55148;SDS011;49539;48.160;11.530;2023-02-01T01:28:17;6.68;;;3.45;;
55148;SDS011;49539;48.160;11.530;2023-02-01T01:30:42;8.15;;;3.97;;
55148;SDS011;49539;48.160;11.530;2023-02-01T01:33:07;6.32;;;3.58;;
55148;SDS011;49539;48.160;11.530;2023-02-01T01:35:33;8.02;;;4.35;;
55148;SDS011;49539;48.160;11.530;2023-02-01T01:37:59;7.78;;;4.30;;
55148;SDS011;49539;48.160;11.530;2023-02-01T01:40:25;7.03;;;3.58;;
55148;SDS011;49539;48.160;11.530;2023-02-01T01:42:50;13.27;;;4.13;;
55148;SDS011;49539;48.160;11.530;2023-02-01T01:45:28;6.18;;;3.80;;
55148;SDS011;49539;48.160;11.530;2023-02-01T01:47:56;7.70;;;4.25;;
55148;SDS011;49539;48.160;11.530;2023-02-01T01:50:23;10.15;;;5.00;;
55148;SDS011;49539;48.160;11.530;2023-02-01T01:52:50;6.72;;;3.80;;
55148;SDS011;49539;48.160;11.530;2023-02-01T01:55:16;7.68;;;4.05;;
55148;SDS011;49539;48.160;11.530;2023-02-01T01:57:43;9.40;;;4.90;;
55148;SDS011;49539;48.160;11.530;2023-02-01T02:00:10;10.07;;;4.85;;
55148;SDS011;49539;48.160;11.530;2023-02-01T02:02:36;8.93;;;4.72;;
55148;SDS011;49539;48.160;11.530;2023-02-01T02:05:02;9.05;;;5.22;;
55148;SDS011;49539;48.160;11.530;2023-02-01T02:07:28;12.00;;;5.88;;
55148;SDS011;49539;48.160;11.530;2023-02-01T02:09:55;9.13;;;4.45;;
55148;SDS011;49539;48.160;11.530;2023-02-01T02:12:20;8.52;;;4.65;;
55148;SDS011;49539;48.160;11.530;2023-02-01T02:14:45;11.85;;;5.68;;
55148;SDS011;49539;48.160;11.530;2023-02-01T02:30:36;8.23;;;4.60;;
55148;SDS011;49539;48.160;11.530;2023-02-01T02:41:01;9.18;;;5.28;;
55148;SDS011;49539;48.160;11.530;2023-02-01T02:43:32;8.63;;;4.40;;
55148;SDS011;49539;48.160;11.530;2023-02-01T02:49:15;9.63;;;4.80;;
55148;SDS011;49539;48.160;11.530;2023-02-01T02:51:51;8.43;;;4.72;;
55148;SDS011;49539;48.160;11.530;2023-02-01T02:54:37;8.70;;;4.30;;
55148;SDS011;49539;48.160;11.530;2023-02-01T02:57:12;8.40;;;4.72;;
55148;SDS011;49539;48.160;11.530;2023-02-01T02:59:57;9.07;;;4.85;;
55148;SDS011;49539;48.160;11.530;2023-02-01T03:02:42;8.20;;;4.07;;
55148;SDS011;49539;48.160;11.530;2023-02-01T03:05:37;7.22;;;4.55;;
55148;SDS011;49539;48.160;11.530;2023-02-01T03:08:12;7.90;;;4.18;;
55148;SDS011;49539;48.160;11.530;2023-02-01T03:10:42;8.23;;;4.65;;
55148;SDS011;49539;48.160;11.530;2023-02-01T03:13:10;11.05;;;4.43;;
55148;SDS011;49539;48.160;11.530;2023-02-01T03:15:51;6.82;;;3.83;;
55148;SDS011;49539;48.160;11.530;2023-02-01T03:18:21;9.25;;;4.43;;
55148;SDS011;49539;48.160;11.530;2023-02-01T03:20:49;6.93;;;4.05;;
55148;SDS011;49539;48.160;11.530;2023-02-01T03:23:18;8.27;;;4.47;;
55148;SDS011;49539;48.160;11.530;2023-02-01T03:25:44;8.07;;;3.80;;
55148;SDS011;49539;48.160;11.530;2023-02-01T03:28:12;8.77;;;4.20;;
55148;SDS011;49539;48.160;11.530;2023-02-01T03:30:39;6.45;;;3.63;;
55148;SDS011;49539;48.160;11.530;2023-02-01T03:33:07;7.65;;;4.25;;
55148;SDS011;49539;48.160;11.530;2023-02-01T03:38:21;8.55;;;4.38;;
55148;SDS011;49539;48.160;11.530;2023-02-01T03:40:56;10.20;;;4.13;;
55148;SDS011;49539;48.160;11.530;2023-02-01T03:43:23;5.75;;;3.53;;
55148;SDS011;49539;48.160;11.530;2023-02-01T03:45:52;9.20;;;3.85;;
55148;SDS011;49539;48.160;11.530;2023-02-01T03:48:19;6.43;;;3.15;;
55148;SDS011;49539;48.160;11.530;2023-02-01T03:50:48;8.05;;;4.03;;
55148;SDS011;49539;48.160;11.530;2023-02-01T03:53:17;7.20;;;3.88;;
55148;SDS011;49539;48.160;11.530;2023-02-01T03:55:44;6.50;;;3.10;;
55148;SDS011;49539;48.160;11.530;2023-02-01T03:58:13;8.40;;;4.32;;
55148;SDS011;49539;48.160;11.530;2023-02-01T04:00:39;6.57;;;3.95;;
55148;SDS011;49539;48.160;11.530;2023-02-01T04:03:05;6.38;;;3.45;;
55148;SDS011;49539;48.160;11.530;2023-02-01T04:05:30;6.43;;;3.78;;
55148;SDS011;49539;48.160;11.530;2023-02-01T04:07:56;5.90;;;3.30;;
55148;SDS011;49539;48.160;11.530;2023-02-01T04:10:21;7.15;;;3.60;;
55148;SDS011;49539;48.160;11.530;2023-02-01T04:12:46;6.45;;;3.33;;
55148;SDS011;49539;48.160;11.530;2023-02-01T04:15:12;7.55;;;3.75;;
55148;SDS011;49539;48.160;11.530;2023-02-01T04:17:37;7.32;;;3.92;;
55148;SDS011;49539;48.160;11.530;2023-02-01T04:20:02;7.47;;;3.50;;
55148;SDS011;49539;48.160;11.530;2023-02-01T04:22:29;8.00;;;3.70;;
55148;SDS011;49539;48.160;11.530;2023-02-01T04:24:55;6.05;;;3.65;;
55148;SDS011;49539;48.160;11.530;2023-02-01T04:27:20;12.52;;;4.47;;
55148;SDS011;49539;48.160;11.530;2023-02-01T04:29:45;7.10;;;4.00;;
55148;SDS011;49539;48.160;11.530;2023-02-01T04:32:10;7.07;;;3.78;;
55148;SDS011;49539;48.160;11.530;2023-02-01T04:34:36;7.55;;;4.25;;
55148;SDS011;49539;48.160;11.530;2023-02-01T04:37:01;9.05;;;4.00;;
55148;SDS011;49539;48.160;11.530;2023-02-01T04:39:27;7.22;;;4.00;;
55148;SDS011;49539;48.160;11.530;2023-02-01T04:41:52;6.63;;;3.78;;
55148;SDS011;49539;48.160;11.530;2023-02-01T04:44:18;9.27;;;3.38;;
55148;SDS011;49539;48.160;11.530;2023-02-01T04:46:44;6.38;;;3.92;;
55148;SDS011;49539;48.160;11.530;2023-02-01T04:49:09;7.88;;;3.78;;
55148;SDS011;49539;48.160;11.530;2023-02-01T04:51:35;7.18;;;4.15;;
55148;SDS011;49539;48.160;11.530;2023-02-01T04:54:00;9.02;;;4.25;;
55148;SDS011;49539;48.160;11.530;2023-02-01T04:56:25;10.20;;;3.75;;
55148;SDS011;49539;48.160;11.530;2023-02-01T04:58:51;7.78;;;3.97;;
55148;SDS011;49539;48.160;11.530;2023-02-01T05:01:17;7.40;;;4.53;;
55148;SDS011;49539;48.160;11.530;2023-02-01T05:03:42;8.48;;;4.65;;
55148;SDS011;49539;48.160;11.530;2023-02-01T05:06:07;9.40;;;4.47;;
55148;SDS011;49539;48.160;11.530;2023-02-01T05:08:33;8.57;;;4.82;;
55148;SDS011;49539;48.160;11.530;2023-02-01T05:10:58;8.60;;;4.40;;
55148;SDS011;49539;48.160;11.530;2023-02-01T05:13:24;8.77;;;4.32;;
55148;SDS011;49539;48.160;11.530;2023-02-01T05:16:08;7.78;;;3.67;;
55148;SDS011;49539;48.160;11.530;2023-02-01T05:18:33;9.80;;;4.53;;
55148;SDS011;49539;48.160;11.530;2023-02-01T05:20:58;7.72;;;4.63;;
55148;SDS011;49539;48.160;11.530;2023-02-01T05:23:23;9.10;;;4.80;;
55148;SDS011;49539;48.160;11.530;2023-02-01T05:25:49;9.25;;;4.32;;
55148;SDS011;49539;48.160;11.530;2023-02-01T05:28:14;6.18;;;3.80;;
55148;SDS011;49539;48.160;11.530;2023-02-01T05:30:39;10.80;;;4.68;;
55148;SDS011;49539;48.160;11.530;2023-02-01T05:33:05;7.80;;;4.60;;
55148;SDS011;49539;48.160;11.530;2023-02-01T05:35:30;9.65;;;4.88;;
55148;SDS011;49539;48.160;11.530;2023-02-01T05:37:55;12.55;;;5.50;;
55148;SDS011;49539;48.160;11.530;2023-02-01T05:40:20;8.63;;;5.20;;
55148;SDS011;49539;48.160;11.530;2023-02-01T05:42:46;8.57;;;3.92;;
55148;SDS011;49539;48.160;11.530;2023-02-01T05:45:11;7.85;;;4.63;;
55148;SDS011;49539;48.160;11.530;2023-02-01T05:47:36;7.93;;;4.40;;
55148;SDS011;49539;48.160;11.530;2023-02-01T05:50:02;10.48;;;4.68;;
55148;SDS011;49539;48.160;11.530;2023-02-01T05:52:28;9.00;;;4.82;;
55148;SDS011;49539;48.160;11.530;2023-02-01T05:54:53;8.52;;;5.05;;
55148;SDS011;49539;48.160;11.530;2023-02-01T05:57:18;11.05;;;5.15;;
55148;SDS011;49539;48.160;11.530;2023-02-01T05:59:43;8.23;;;4.60;;
55148;SDS011;49539;48.160;11.530;2023-02-01T06:02:12;8.15;;;4.55;;
55148;SDS011;49539;48.160;11.530;2023-02-01T06:04:37;9.55;;;4.82;;
55148;SDS011;49539;48.160;11.530;2023-02-01T06:07:04;9.10;;;4.72;;
55148;SDS011;49539;48.160;11.530;2023-02-01T06:09:29;7.60;;;3.83;;
55148;SDS011;49539;48.160;11.530;2023-02-01T06:11:54;9.18;;;4.30;;
55148;SDS011;49539;48.160;11.530;2023-02-01T06:14:20;8.27;;;4.72;;
55148;SDS011;49539;48.160;11.530;2023-02-01T06:16:45;7.90;;;4.05;;
55148;SDS011;49539;48.160;11.530;2023-02-01T06:19:11;8.35;;;4.47;;
55148;SDS011;49539;48.160;11.530;2023-02-01T06:21:36;7.90;;;4.07;;
55148;SDS011;49539;48.160;11.530;2023-02-01T06:24:02;7.32;;;3.60;;
55148;SDS011;49539;48.160;11.530;2023-02-01T06:26:27;8.45;;;4.38;;
55148;SDS011;49539;48.160;11.530;2023-02-01T06:28:53;6.97;;;3.78;;
55148;SDS011;49539;48.160;11.530;2023-02-01T06:31:20;7.55;;;3.83;;
55148;SDS011;49539;48.160;11.530;2023-02-01T06:33:45;9.13;;;4.75;;
55148;SDS011;49539;48.160;11.530;2023-02-01T06:36:12;7.55;;;4.40;;
55148;SDS011;49539;48.160;11.530;2023-02-01T06:38:38;9.00;;;4.55;;
55148;SDS011;49539;48.160;11.530;2023-02-01T06:41:03;9.48;;;4.22;;
55148;SDS011;49539;48.160;11.530;2023-02-01T06:43:29;8.95;;;4.20;;
55148;SDS011;49539;48.160;11.530;2023-02-01T06:45:59;7.30;;;4.50;;
55148;SDS011;49539;48.160;11.530;2023-02-01T06:48:28;8.18;;;4.22;;
55148;SDS011;49539;48.160;11.530;2023-02-01T06:50:53;7.40;;;3.90;;
55148;SDS011;49539;48.160;11.530;2023-02-01T06:53:19;7.68;;;3.92;;
55148;SDS011;49539;48.160;11.530;2023-02-01T07:00:43;10.05;;;4.07;;
55148;SDS011;49539;48.160;11.530;2023-02-01T07:03:09;6.72;;;3.90;;
55148;SDS011;49539;48.160;11.530;2023-02-01T07:05:34;8.85;;;3.85;;
55148;SDS011;49539;48.160;11.530;2023-02-01T07:08:00;8.32;;;4.35;;
55148;SDS011;49539;48.160;11.530;2023-02-01T07:10:25;6.45;;;3.60;;
55148;SDS011;49539;48.160;11.530;2023-02-01T07:12:50;9.85;;;4.32;;
55148;SDS011;49539;48.160;11.530;2023-02-01T07:15:16;6.15;;;3.42;;
55148;SDS011;49539;48.160;11.530;2023-02-01T07:17:41;7.55;;;3.22;;
55148;SDS011;49539;48.160;11.530;2023-02-01T07:20:07;7.20;;;3.60;;
55148;SDS011;49539;48.160;11.530;2023-02-01T07:22:32;8.68;;;3.15;;
55148;SDS011;49539;48.160;11.530;2023-02-01T07:24:57;5.95;;;3.30;;
55148;SDS011;49539;48.160;11.530;2023-02-01T07:27:23;6.75;;;3.67;;
55148;SDS011;49539;48.160;11.530;2023-02-01T07:29:50;6.05;;;3.08;;
55148;SDS011;49539;48.160;11.530;2023-02-01T07:32:16;6.30;;;3.08;;
55148;SDS011;49539;48.160;11.530;2023-02-01T07:34:43;5.05;;;3.15;;
55148;SDS011;49539;48.160;11.530;2023-02-01T07:37:08;7.85;;;3.67;;
55148;SDS011;49539;48.160;11.530;2023-02-01T07:39:33;6.28;;;2.67;;
55148;SDS011;49539;48.160;11.530;2023-02-01T07:41:59;5.63;;;2.92;;
55148;SDS011;49539;48.160;11.530;2023-02-01T07:44:24;4.63;;;2.42;;
55148;SDS011;49539;48.160;11.530;2023-02-01T07:46:49;5.03;;;2.45;;
55148;SDS011;49539;48.160;11.530;2023-02-01T07:49:15;6.65;;;3.20;;
55148;SDS011;49539;48.160;11.530;2023-02-01T07:51:42;7.00;;;3.40;;
55148;SDS011;49539;48.160;11.530;2023-02-01T07:54:07;4.10;;;2.22;;
55148;SDS011;49539;48.160;11.530;2023-02-01T07:56:33;4.85;;;2.50;;
55148;SDS011;49539;48.160;11.530;2023-02-01T07:58:58;5.50;;;2.92;;
55148;SDS011;49539;48.160;11.530;2023-02-01T08:01:26;6.53;;;2.75;;
55148;SDS011;49539;48.160;11.530;2023-02-01T08:03:58;5.40;;;2.90;;
55148;SDS011;49539;48.160;11.530;2023-02-01T08:06:24;4.65;;;2.25;;
55148;SDS011;49539;48.160;11.530;2023-02-01T08:08:50;5.53;;;2.70;;
55148;SDS011;49539;48.160;11.530;2023-02-01T08:11:16;4.80;;;2.55;;
55148;SDS011;49539;48.160;11.530;2023-02-01T08:13:42;4.65;;;2.08;;
55148;SDS011;49539;48.160;11.530;2023-02-01T08:16:08;4.70;;;2.35;;
55148;SDS011;49539;48.160;11.530;2023-02-01T08:18:34;5.57;;;2.67;;
55148;SDS011;49539;48.160;11.530;2023-02-01T08:23:32;6.10;;;2.42;;
55148;SDS011;49539;48.160;11.530;2023-02-01T08:26:08;8.75;;;2.45;;
55148;SDS011;49539;48.160;11.530;2023-02-01T08:28:33;4.68;;;2.38;;
55148;SDS011;49539;48.160;11.530;2023-02-01T08:31:02;8.43;;;2.42;;
55148;SDS011;49539;48.160;11.530;2023-02-01T08:33:28;4.47;;;2.10;;
55148;SDS011;49539;48.160;11.530;2023-02-01T08:35:54;5.07;;;2.63;;
55148;SDS011;49539;48.160;11.530;2023-02-01T08:38:19;4.53;;;2.42;;
55148;SDS011;49539;48.160;11.530;2023-02-01T08:40:45;5.80;;;2.40;;
55148;SDS011;49539;48.160;11.530;2023-02-01T08:43:11;4.47;;;2.53;;
55148;SDS011;49539;48.160;11.530;2023-02-01T08:45:36;5.75;;;2.50;;
55148;SDS011;49539;48.160;11.530;2023-02-01T08:48:02;4.32;;;2.30;;
55148;SDS011;49539;48.160;11.530;2023-02-01T08:50:27;5.47;;;2.45;;
55148;SDS011;49539;48.160;11.530;2023-02-01T08:52:52;11.07;;;2.90;;
55148;SDS011;49539;48.160;11.530;2023-02-01T08:55:18;5.28;;;2.53;;
55148;SDS011;49539;48.160;11.530;2023-02-01T08:57:44;4.95;;;2.33;;
55148;SDS011;49539;48.160;11.530;2023-02-01T09:00:17;5.53;;;2.67;;
55148;SDS011;49539;48.160;11.530;2023-02-01T09:02:43;4.70;;;2.70;;
55148;SDS011;49539;48.160;11.530;2023-02-01T09:05:08;4.90;;;2.92;;
55148;SDS011;49539;48.160;11.530;2023-02-01T09:07:33;7.43;;;2.88;;
55148;SDS011;49539;48.160;11.530;2023-02-01T09:09:59;7.22;;;3.17;;
55148;SDS011;49539;48.160;11.530;2023-02-01T09:12:28;4.82;;;2.67;;
55148;SDS011;49539;48.160;11.530;2023-02-01T09:14:55;4.95;;;2.30;;
55148;SDS011;49539;48.160;11.530;2023-02-01T09:17:20;5.07;;;2.53;;
55148;SDS011;49539;48.160;11.530;2023-02-01T09:19:45;6.00;;;2.60;;
55148;SDS011;49539;48.160;11.530;2023-02-01T09:22:11;3.55;;;2.40;;
55148;SDS011;49539;48.160;11.530;2023-02-01T09:24:36;6.03;;;2.38;;
55148;SDS011;49539;48.160;11.530;2023-02-01T09:27:01;7.70;;;2.80;;
55148;SDS011;49539;48.160;11.530;2023-02-01T09:29:26;3.28;;;2.10;;
55148;SDS011;49539;48.160;11.530;2023-02-01T09:31:52;2.75;;;2.00;;
55148;SDS011;49539;48.160;11.530;2023-02-01T09:34:17;3.78;;;2.42;;
55148;SDS011;49539;48.160;11.530;2023-02-01T09:36:42;3.80;;;2.03;;
55148;SDS011;49539;48.160;11.530;2023-02-01T09:39:08;4.43;;;2.50;;
55148;SDS011;49539;48.160;11.530;2023-02-01T09:44:06;5.57;;;2.47;;
55148;SDS011;49539;48.160;11.530;2023-02-01T09:46:33;4.82;;;2.67;;
55148;SDS011;49539;48.160;11.530;2023-02-01T09:49:12;5.22;;;2.63;;
55148;SDS011;49539;48.160;11.530;2023-02-01T09:51:41;4.60;;;2.30;;
55148;SDS011;49539;48.160;11.530;2023-02-01T09:54:13;3.65;;;1.95;;
55148;SDS011;49539;48.160;11.530;2023-02-01T09:56:49;3.85;;;2.05;;
55148;SDS011;49539;48.160;11.530;2023-02-01T10:01:45;7.15;;;2.28;;
55148;SDS011;49539;48.160;11.530;2023-02-01T10:04:11;4.50;;;2.20;;
55148;SDS011;49539;48.160;11.530;2023-02-01T10:17:33;5.57;;;2.72;;
55148;SDS011;49539;48.160;11.530;2023-02-01T10:22:11;5.20;;;2.58;;
55148;SDS011;49539;48.160;11.530;2023-02-01T10:24:41;6.55;;;2.47;;
55148;SDS011;49539;48.160;11.530;2023-02-01T10:29:42;5.93;;;2.67;;
55148;SDS011;49539;48.160;11.530;2023-02-01T10:32:52;8.73;;;2.70;;
55148;SDS011;49539;48.160;11.530;2023-02-01T10:34:58;6.22;;;2.50;;
55148;SDS011;49539;48.160;11.530;2023-02-01T10:39:49;3.92;;;2.33;;
55148;SDS011;49539;48.160;11.530;2023-02-01T10:42:17;4.63;;;2.30;;
55148;SDS011;49539;48.160;11.530;2023-02-01T10:44:44;7.85;;;2.67;;
55148;SDS011;49539;48.160;11.530;2023-02-01T10:47:10;6.72;;;2.92;;
55148;SDS011;49539;48.160;11.530;2023-02-01T10:49:47;3.90;;;2.13;;
55148;SDS011;49539;48.160;11.530;2023-02-01T10:52:33;4.25;;;2.22;;
55148;SDS011;49539;48.160;11.530;2023-02-01T10:57:48;5.05;;;;;
55148;SDS011;49539;48.160;11.530;2023-02-01T11:00:19;6.63;;;3.50;;
55148;SDS011;49539;48.160;11.530;2023-02-01T11:02:45;3.70;;;2.35;;
55148;SDS011;49539;48.160;11.530;2023-02-01T11:05:10;5.90;;;2.80;;
55148;SDS011;49539;48.160;11.530;2023-02-01T11:07:37;4.88;;;2.40;;
55148;SDS011;49539;48.160;11.530;2023-02-01T11:10:03;5.10;;;2.50;;
55148;SDS011;49539;48.160;11.530;2023-02-01T11:12:30;6.80;;;2.42;;
55148;SDS011;49539;48.160;11.530;2023-02-01T11:14:57;5.05;;;2.67;;
55148;SDS011;49539;48.160;11.530;2023-02-01T11:17:24;4.55;;;2.28;;
55148;SDS011;49539;48.160;11.530;2023-02-01T11:19:58;7.18;;;2.50;;
55148;SDS011;49539;48.160;11.530;2023-02-01T11:22:24;5.82;;;2.78;;
55148;SDS011;49539;48.160;11.530;2023-02-01T11:24:51;5.90;;;2.63;;
55148;SDS011;49539;48.160;11.530;2023-02-01T11:27:18;7.13;;;2.60;;
55148;SDS011;49539;48.160;11.530;2023-02-01T11:29:46;5.30;;;2.80;;
55148;SDS011;49539;48.160;11.530;2023-02-01T11:35:13;6.55;;;2.58;;
55148;SDS011;49539;48.160;11.530;2023-02-01T11:37:41;7.05;;;3.83;;
55148;SDS011;49539;48.160;11.530;2023-02-01T11:45:19;4.97;;;2.65;;
55148;SDS011;49539;48.160;11.530;2023-02-01T11:47:45;7.93;;;3.40;;
55148;SDS011;49539;48.160;11.530;2023-02-01T11:50:16;5.43;;;2.83;;
55148;SDS011;49539;48.160;11.530;2023-02-01T12:18:53;7.32;;;3.38;;
55148;SDS011;49539;48.160;11.530;2023-02-01T12:23:59;9.05;;;3.83;;
55148;SDS011;49539;48.160;11.530;2023-02-01T12:26:35;7.55;;;3.78;;
55148;SDS011;49539;48.160;11.530;2023-02-01T12:34:15;7.50;;;3.28;;
55148;SDS011;49539;48.160;11.530;2023-02-01T12:36:55;6.40;;;3.10;;
55148;SDS011;49539;48.160;11.530;2023-02-01T12:39:38;10.10;;;3.65;;
55148;SDS011;49539;48.160;11.530;2023-02-01T12:42:21;5.95;;;3.67;;
55148;SDS011;49539;48.160;11.530;2023-02-01T12:44:50;8.70;;;3.75;;
55148;SDS011;49539;48.160;11.530;2023-02-01T12:49:45;11.20;;;3.90;;
55148;SDS011;49539;48.160;11.530;2023-02-01T12:54:57;8.10;;;3.47;;
55148;SDS011;49539;48.160;11.530;2023-02-01T12:59:53;10.43;;;3.53;;
55148;SDS011;49539;48.160;11.530;2023-02-01T13:04:55;7.80;;;3.33;;
55148;SDS011;49539;48.160;11.530;2023-02-01T13:07:58;4.63;;;2.63;;
55148;SDS011;49539;48.160;11.530;2023-02-01T13:10:17;6.47;;;2.90;;
55148;SDS011;49539;48.160;11.530;2023-02-01T13:13:09;8.18;;;2.97;;
55148;SDS011;49539;48.160;11.530;2023-02-01T13:15:33;5.85;;;3.10;;
55148;SDS011;49539;48.160;11.530;2023-02-01T13:18:02;4.70;;;2.75;;
55148;SDS011;49539;48.160;11.530;2023-02-01T13:20:29;8.40;;;2.72;;
55148;SDS011;49539;48.160;11.530;2023-02-01T13:23:09;5.97;;;2.85;;
55148;SDS011;49539;48.160;11.530;2023-02-01T13:25:48;7.07;;;3.22;;
55148;SDS011;49539;48.160;11.530;2023-02-01T13:28:25;9.65;;;3.25;;
55148;SDS011;49539;48.160;11.530;2023-02-01T13:30:58;5.25;;;2.63;;
55148;SDS011;49539;48.160;11.530;2023-02-01T13:43:36;5.85;;;3.00;;
55148;SDS011;49539;48.160;11.530;2023-02-01T13:46:09;4.80;;;2.67;;
55148;SDS011;49539;48.160;11.530;2023-02-01T13:48:39;6.25;;;3.15;;
55148;SDS011;49539;48.160;11.530;2023-02-01T13:51:07;5.05;;;3.17;;
55148;SDS011;49539;48.160;11.530;2023-02-01T13:53:34;6.13;;;2.95;;
55148;SDS011;49539;48.160;11.530;2023-02-01T13:56:12;6.43;;;2.92;;
55148;SDS011;49539;48.160;11.530;2023-02-01T13:58:41;7.63;;;2.70;;
55148;SDS011;49539;48.160;11.530;2023-02-01T14:11:32;4.88;;;2.70;;
55148;SDS011;49539;48.160;11.530;2023-02-01T14:14:06;7.53;;;2.85;;
55148;SDS011;49539;48.160;11.530;2023-02-01T14:16:31;4.85;;;2.83;;
55148;SDS011;49539;48.160;11.530;2023-02-01T14:18:58;6.85;;;3.30;;
55148;SDS011;49539;48.160;11.530;2023-02-01T14:23:56;7.00;;;2.78;;
55148;SDS011;49539;48.160;11.530;2023-02-01T14:29:30;5.85;;;2.85;;
55148;SDS011;49539;48.160;11.530;2023-02-01T14:39:57;5.90;;;2.75;;
55148;SDS011;49539;48.160;11.530;2023-02-01T14:42:37;6.55;;;2.78;;
55148;SDS011;49539;48.160;11.530;2023-02-01T14:47:45;7.15;;;2.65;;
55148;SDS011;49539;48.160;11.530;2023-02-01T14:58:09;5.07;;;2.53;;
55148;SDS011;49539;48.160;11.530;2023-02-01T15:00:41;4.65;;;2.10;;
55148;SDS011;49539;48.160;11.530;2023-02-01T15:03:30;3.50;;;2.00;;
55148;SDS011;49539;48.160;11.530;2023-02-01T15:05:58;5.32;;;2.50;;
55148;SDS011;49539;48.160;11.530;2023-02-01T15:08:29;6.05;;;2.45;;
55148;SDS011;49539;48.160;11.530;2023-02-01T15:10:55;5.28;;;2.70;;
55148;SDS011;49539;48.160;11.530;2023-02-01T15:13:23;6.07;;;2.75;;
55148;SDS011;49539;48.160;11.530;2023-02-01T15:18:33;6.35;;;2.53;;
55148;SDS011;49539;48.160;11.530;2023-02-01T15:20:59;5.13;;;2.10;;
55148;SDS011;49539;48.160;11.530;2023-02-01T15:23:25;4.93;;;2.40;;
55148;SDS011;49539;48.160;11.530;2023-02-01T15:25:51;5.68;;;2.97;;
55148;SDS011;49539;48.160;11.530;2023-02-01T15:28:16;5.75;;;2.90;;
55148;SDS011;49539;48.160;11.530;2023-02-01T15:30:56;7.78;;;2.85;;
55148;SDS011;49539;48.160;11.530;2023-02-01T15:33:21;5.30;;;2.42;;
55148;SDS011;49539;48.160;11.530;2023-02-01T15:35:49;5.55;;;2.70;;
55148;SDS011;49539;48.160;11.530;2023-02-01T15:41:05;4.95;;;2.00;;
55148;SDS011;49539;48.160;11.530;2023-02-01T15:43:36;4.68;;;2.28;;
55148;SDS011;49539;48.160;11.530;2023-02-01T15:46:03;4.68;;;2.45;;
55148;SDS011;49539;48.160;11.530;2023-02-01T15:48:36;5.40;;;2.00;;
55148;SDS011;49539;48.160;11.530;2023-02-01T15:51:02;10.35;;;2.20;;
55148;SDS011;49539;48.160;11.530;2023-02-01T15:53:28;4.95;;;2.25;;
55148;SDS011;49539;48.160;11.530;2023-02-01T15:55:57;4.05;;;2.13;;
55148;SDS011;49539;48.160;11.530;2023-02-01T15:58:24;5.75;;;2.45;;
55148;SDS011;49539;48.160;11.530;2023-02-01T16:00:52;6.47;;;2.70;;
55148;SDS011;49539;48.160;11.530;2023-02-01T16:03:37;4.45;;;2.22;;
55148;SDS011;49539;48.160;11.530;2023-02-01T16:06:49;4.82;;;2.22;;
55148;SDS011;49539;48.160;11.530;2023-02-01T16:09:11;9.13;;;2.53;;
55148;SDS011;49539;48.160;11.530;2023-02-01T16:11:46;8.07;;;2.80;;
55148;SDS011;49539;48.160;11.530;2023-02-01T16:14:17;8.52;;;2.30;;
55148;SDS011;49539;48.160;11.530;2023-02-01T16:16:42;7.45;;;2.35;;
55148;SDS011;49539;48.160;11.530;2023-02-01T16:19:07;4.15;;;2.17;;
55148;SDS011;49539;48.160;11.530;2023-02-01T16:21:33;6.35;;;2.78;;
55148;SDS011;49539;48.160;11.530;2023-02-01T16:23:58;6.30;;;2.22;;
55148;SDS011;49539;48.160;11.530;2023-02-01T16:26:28;4.80;;;2.70;;
55148;SDS011;49539;48.160;11.530;2023-02-01T16:28:53;3.67;;;1.52;;
55148;SDS011;49539;48.160;11.530;2023-02-01T16:31:20;7.80;;;2.25;;
55148;SDS011;49539;48.160;11.530;2023-02-01T16:33:48;5.10;;;2.33;;
55148;SDS011;49539;48.160;11.530;2023-02-01T16:36:14;4.18;;;2.55;;
55148;SDS011;49539;48.160;11.530;2023-02-01T16:38:39;3.20;;;1.88;;
55148;SDS011;49539;48.160;11.530;2023-02-01T16:41:05;7.82;;;2.75;;
55148;SDS011;49539;48.160;11.530;2023-02-01T16:43:33;10.35;;;2.03;;
55148;SDS011;49539;48.160;11.530;2023-02-01T16:45:59;7.15;;;2.45;;
55148;SDS011;49539;48.160;11.530;2023-02-01T16:48:26;6.28;;;2.03;;
55148;SDS011;49539;48.160;11.530;2023-02-01T16:50:55;4.75;;;2.40;;
55148;SDS011;49539;48.160;11.530;2023-02-01T16:53:22;8.80;;;3.10;;
55148;SDS011;49539;48.160;11.530;2023-02-01T16:55:47;10.20;;;2.83;;
55148;SDS011;49539;48.160;11.530;2023-02-01T16:58:14;5.78;;;2.03;;
55148;SDS011;49539;48.160;11.530;2023-02-01T17:00:40;3.40;;;1.90;;
55148;SDS011;49539;48.160;11.530;2023-02-01T17:03:05;5.10;;;2.53;;
55148;SDS011;49539;48.160;11.530;2023-02-01T17:05:31;4.18;;;2.40;;
55148;SDS011;49539;48.160;11.530;2023-02-01T17:07:58;6.95;;;3.05;;
55148;SDS011;49539;48.160;11.530;2023-02-01T17:10:26;8.30;;;3.35;;
55148;SDS011;49539;48.160;11.530;2023-02-01T17:12:52;8.85;;;2.88;;
55148;SDS011;49539;48.160;11.530;2023-02-01T17:15:17;7.13;;;3.17;;
55148;SDS011;49539;48.160;11.530;2023-02-01T17:17:43;7.70;;;2.83;;
55148;SDS011;49539;48.160;11.530;2023-02-01T17:20:09;6.88;;;2.95;;